GTI91 KJFK-KJAX
Flight info
| Callsign | GTI91 |
|---|---|
| Flight time | 2h 1m |
| Altitude | 30000 |
| Route | WAVEY EMJAY Q167 ZJAAY Q97 SAWED GUILD Q409 SESUE ESENT LUNNI2 |
| Aircraft | B77L/H-SDE1E2E3FGHIJ2J3J4J5M1RWXY/LB1D1 |
Departure
| Time | 2026-05-03 21:18 |
|---|---|
| Airport | John F. Kennedy International Airport (KJFK) |
Arrival
| Time | 2026-05-03 23:20 |
|---|---|
| Airport | Jacksonville International Airport (KJAX) |
| Time | Latitude | Longitude | Altitude | Speed | Heading |
|---|---|---|---|---|---|
| 2026-05-03 20:58 | 40.65454 | -73.79668 | 22 ft | 0 kts | 90° |
| 2026-05-03 20:59 | 40.65454 | -73.79677 | 22 ft | 2 kts | 91° |
| 2026-05-03 20:59 | 40.65454 | -73.79697 | 22 ft | 2 kts | 99° |
| 2026-05-03 20:59 | 40.65458 | -73.79716 | 22 ft | 2 kts | 113° |
| 2026-05-03 21:00 | 40.65465 | -73.79733 | 22 ft | 2 kts | 124° |
| 2026-05-03 21:00 | 40.65468 | -73.79738 | 22 ft | 2 kts | 129° |
| 2026-05-03 21:00 | 40.65487 | -73.79761 | 22 ft | 2 kts | 149° |
| 2026-05-03 21:00 | 40.65499 | -73.79769 | 22 ft | 2 kts | 161° |
| 2026-05-03 21:01 | 40.65514 | -73.79774 | 22 ft | 2 kts | 173° |
| 2026-05-03 21:01 | 40.65524 | -73.79775 | 22 ft | 0 kts | 181° |
| 2026-05-03 21:01 | 40.65526 | -73.79775 | 22 ft | 0 kts | 181° |
| 2026-05-03 21:07 | 40.65523 | -73.79775 | 22 ft | 1 kts | 181° |
| 2026-05-03 21:07 | 40.65496 | -73.79776 | 22 ft | 6 kts | 181° |
| 2026-05-03 21:07 | 40.65439 | -73.79777 | 22 ft | 10 kts | 181° |
| 2026-05-03 21:08 | 40.65358 | -73.79779 | 22 ft | 11 kts | 181° |
| 2026-05-03 21:08 | 40.65309 | -73.79773 | 22 ft | 7 kts | 168° |
| 2026-05-03 21:08 | 40.65250 | -73.79742 | 22 ft | 9 kts | 153° |
| 2026-05-03 21:08 | 40.65192 | -73.79699 | 22 ft | 9 kts | 151° |
| 2026-05-03 21:09 | 40.65129 | -73.79710 | 22 ft | 9 kts | 215° |
| 2026-05-03 21:09 | 40.65087 | -73.79752 | 22 ft | 4 kts | 218° |
| 2026-05-03 21:09 | 40.65043 | -73.79784 | 22 ft | 11 kts | 202° |
| 2026-05-03 21:09 | 40.64953 | -73.79804 | 22 ft | 13 kts | 180° |
| 2026-05-03 21:10 | 40.64874 | -73.79804 | 22 ft | 9 kts | 179° |
| 2026-05-03 21:10 | 40.64792 | -73.79798 | 22 ft | 14 kts | 169° |
| 2026-05-03 21:10 | 40.64696 | -73.79738 | 22 ft | 14 kts | 144° |
| 2026-05-03 21:10 | 40.64631 | -73.79675 | 22 ft | 10 kts | 142° |
| 2026-05-03 21:11 | 40.64554 | -73.79610 | 22 ft | 16 kts | 158° |
| 2026-05-03 21:11 | 40.64437 | -73.79591 | 22 ft | 16 kts | 178° |
| 2026-05-03 21:11 | 40.64333 | -73.79596 | 22 ft | 13 kts | 183° |
| 2026-05-03 21:11 | 40.64280 | -73.79600 | 22 ft | 6 kts | 183° |
| 2026-05-03 21:12 | 40.64207 | -73.79606 | 22 ft | 14 kts | 183° |
| 2026-05-03 21:12 | 40.64093 | -73.79601 | 20 ft | 16 kts | 166° |
| 2026-05-03 21:12 | 40.63996 | -73.79522 | 18 ft | 16 kts | 131° |
| 2026-05-03 21:12 | 40.63929 | -73.79384 | 19 ft | 18 kts | 120° |
| 2026-05-03 21:13 | 40.63862 | -73.79231 | 19 ft | 22 kts | 121° |
| 2026-05-03 21:13 | 40.63777 | -73.79048 | 20 ft | 23 kts | 119° |
| 2026-05-03 21:13 | 40.63704 | -73.78886 | 19 ft | 15 kts | 121° |
| 2026-05-03 21:13 | 40.63657 | -73.78782 | 18 ft | 17 kts | 120° |
| 2026-05-03 21:14 | 40.63584 | -73.78619 | 18 ft | 21 kts | 120° |
| 2026-05-03 21:14 | 40.63508 | -73.78455 | 19 ft | 21 kts | 121° |
| 2026-05-03 21:14 | 40.63425 | -73.78268 | 18 ft | 28 kts | 122° |
| 2026-05-03 21:14 | 40.63341 | -73.78078 | 18 ft | 23 kts | 112° |
| 2026-05-03 21:15 | 40.63327 | -73.77850 | 18 ft | 21 kts | 109° |
| 2026-05-03 21:15 | 40.63271 | -73.77715 | 18 ft | 9 kts | 121° |
| 2026-05-03 21:15 | 40.63229 | -73.77626 | 18 ft | 13 kts | 121° |
| 2026-05-03 21:15 | 40.63169 | -73.77493 | 18 ft | 20 kts | 120° |
| 2026-05-03 21:16 | 40.63085 | -73.77305 | 18 ft | 25 kts | 122° |
| 2026-05-03 21:16 | 40.63012 | -73.77148 | 18 ft | 17 kts | 121° |
| 2026-05-03 21:16 | 40.62965 | -73.77090 | 18 ft | 6 kts | 173° |
| 2026-05-03 21:16 | 40.62918 | -73.77110 | 18 ft | 3 kts | 209° |
| 2026-05-03 21:17 | 40.62905 | -73.77119 | 18 ft | 5 kts | 209° |
| 2026-05-03 21:17 | 40.62865 | -73.77150 | 18 ft | 10 kts | 210° |
| 2026-05-03 21:17 | 40.62823 | -73.77210 | 18 ft | 6 kts | 274° |
| 2026-05-03 21:17 | 40.62864 | -73.77323 | 18 ft | 32 kts | 300° |
| 2026-05-03 21:18 | 40.63100 | -73.77840 | 19 ft | 91 kts | 300° |
| 2026-05-03 21:18 | 40.63520 | -73.78767 | 24 ft | 146 kts | 301° |
| 2026-05-03 21:18 | 40.64103 | -73.80068 | 289 ft | 181 kts | 301° |
| 2026-05-03 21:18 | 40.64771 | -73.81620 | 952 ft | 205 kts | 294° |
| 2026-05-03 21:19 | 40.64983 | -73.83315 | 2270 ft | 188 kts | 270° |
| 2026-05-03 21:19 | 40.64637 | -73.84992 | 2899 ft | 204 kts | 246° |
| 2026-05-03 21:19 | 40.63638 | -73.86399 | 3564 ft | 221 kts | 217° |
| 2026-05-03 21:19 | 40.62254 | -73.87342 | 4298 ft | 227 kts | 212° |
| 2026-05-03 21:20 | 40.60736 | -73.88015 | 4984 ft | 239 kts | 189° |
| 2026-05-03 21:20 | 40.59081 | -73.87666 | 5606 ft | 253 kts | 158° |
| 2026-05-03 21:20 | 40.57624 | -73.86246 | 5971 ft | 274 kts | 128° |
| 2026-05-03 21:20 | 40.56687 | -73.83955 | 6359 ft | 291 kts | 109° |
| 2026-05-03 21:21 | 40.55976 | -73.81420 | 6870 ft | 303 kts | 107° |
| 2026-05-03 21:21 | 40.55267 | -73.78823 | 6984 ft | 305 kts | 107° |
| 2026-05-03 21:21 | 40.54548 | -73.76190 | 6989 ft | 305 kts | 107° |
| 2026-05-03 21:21 | 40.53832 | -73.73573 | 6994 ft | 305 kts | 107° |
| 2026-05-03 21:22 | 40.53047 | -73.70917 | 7440 ft | 318 kts | 118° |
| 2026-05-03 21:22 | 40.51663 | -73.68728 | 8507 ft | 311 kts | 140° |
| 2026-05-03 21:22 | 40.50008 | -73.66931 | 9280 ft | 314 kts | 142° |
| 2026-05-03 21:22 | 40.48272 | -73.65120 | 10027 ft | 319 kts | 142° |
| 2026-05-03 21:23 | 40.46507 | -73.63286 | 10526 ft | 332 kts | 142° |
| 2026-05-03 21:23 | 40.44653 | -73.61362 | 10900 ft | 349 kts | 142° |
| 2026-05-03 21:23 | 40.42710 | -73.59346 | 11349 ft | 365 kts | 142° |
| 2026-05-03 21:23 | 40.40691 | -73.57253 | 11801 ft | 380 kts | 142° |
| 2026-05-03 21:24 | 40.38566 | -73.55051 | 11987 ft | 402 kts | 142° |
| 2026-05-03 21:24 | 40.36326 | -73.52731 | 11997 ft | 408 kts | 142° |
| 2026-05-03 21:24 | 40.34108 | -73.50436 | 11995 ft | 409 kts | 142° |
| 2026-05-03 21:24 | 40.31865 | -73.48116 | 12144 ft | 421 kts | 142° |
| 2026-05-03 21:25 | 40.29561 | -73.45734 | 13210 ft | 418 kts | 142° |
| 2026-05-03 21:25 | 40.27306 | -73.43405 | 14327 ft | 415 kts | 142° |
| 2026-05-03 21:25 | 40.25040 | -73.41068 | 15143 ft | 422 kts | 142° |
| 2026-05-03 21:25 | 40.22695 | -73.38654 | 15888 ft | 430 kts | 144° |
| 2026-05-03 21:26 | 40.20276 | -73.36355 | 16696 ft | 435 kts | 146° |
| 2026-05-03 21:26 | 40.17690 | -73.34325 | 17474 ft | 438 kts | 157° |
| 2026-05-03 21:26 | 40.14867 | -73.32884 | 18211 ft | 440 kts | 168° |
| 2026-05-03 21:26 | 40.11861 | -73.32088 | 18982 ft | 440 kts | 179° |
| 2026-05-03 21:27 | 40.08825 | -73.31975 | 19742 ft | 438 kts | 189° |
| 2026-05-03 21:27 | 40.05813 | -73.32539 | 20498 ft | 434 kts | 200° |
| 2026-05-03 21:27 | 40.02987 | -73.33727 | 21247 ft | 430 kts | 210° |
| 2026-05-03 21:27 | 40.00339 | -73.35516 | 21965 ft | 425 kts | 220° |
| 2026-05-03 21:28 | 39.98011 | -73.37794 | 22657 ft | 421 kts | 229° |
| 2026-05-03 21:28 | 39.95896 | -73.40392 | 23412 ft | 422 kts | 231° |
| 2026-05-03 21:28 | 39.93764 | -73.43010 | 24180 ft | 424 kts | 230° |
| 2026-05-03 21:28 | 39.91579 | -73.45619 | 24799 ft | 429 kts | 230° |
| 2026-05-03 21:29 | 39.89347 | -73.48223 | 25420 ft | 433 kts | 229° |
| 2026-05-03 21:29 | 39.87085 | -73.50824 | 26005 ft | 437 kts | 229° |
| 2026-05-03 21:29 | 39.84801 | -73.53423 | 26571 ft | 441 kts | 228° |
| 2026-05-03 21:29 | 39.82482 | -73.56044 | 27181 ft | 444 kts | 228° |
| 2026-05-03 21:30 | 39.80130 | -73.58693 | 27775 ft | 447 kts | 228° |
| 2026-05-03 21:30 | 39.77769 | -73.61339 | 28398 ft | 450 kts | 228° |
| 2026-05-03 21:30 | 39.75418 | -73.63966 | 28939 ft | 453 kts | 228° |
| 2026-05-03 21:30 | 39.73013 | -73.66647 | 29606 ft | 454 kts | 227° |
| 2026-05-03 21:31 | 39.70611 | -73.69318 | 29926 ft | 455 kts | 227° |
| 2026-05-03 21:31 | 39.68235 | -73.71955 | 29931 ft | 452 kts | 227° |
| 2026-05-03 21:31 | 39.63459 | -73.77245 | 29953 ft | 450 kts | 227° |
| 2026-05-03 21:32 | 39.58672 | -73.82536 | 29950 ft | 448 kts | 227° |
| 2026-05-03 21:32 | 39.53879 | -73.87824 | 29955 ft | 449 kts | 227° |
| 2026-05-03 21:33 | 39.49165 | -73.93013 | 29963 ft | 449 kts | 227° |
| 2026-05-03 21:33 | 39.44400 | -73.98248 | 29954 ft | 448 kts | 227° |
| 2026-05-03 21:34 | 39.39677 | -74.03426 | 29967 ft | 449 kts | 227° |
| 2026-05-03 21:34 | 39.34911 | -74.08636 | 29969 ft | 446 kts | 227° |
| 2026-05-03 21:35 | 39.30184 | -74.13794 | 29969 ft | 446 kts | 227° |
| 2026-05-03 21:35 | 39.25437 | -74.18964 | 29977 ft | 445 kts | 227° |
| 2026-05-03 21:36 | 39.20751 | -74.24058 | 29982 ft | 444 kts | 228° |
| 2026-05-03 21:36 | 39.16018 | -74.29195 | 29983 ft | 443 kts | 227° |
| 2026-05-03 21:37 | 39.11318 | -74.34288 | 29979 ft | 443 kts | 227° |
| 2026-05-03 21:37 | 39.06620 | -74.39368 | 29989 ft | 443 kts | 228° |
| 2026-05-03 21:38 | 39.01893 | -74.44471 | 29993 ft | 442 kts | 227° |
| 2026-05-03 21:38 | 38.97194 | -74.49534 | 29989 ft | 442 kts | 227° |
| 2026-05-03 21:39 | 38.92491 | -74.54650 | 29978 ft | 439 kts | 230° |
| 2026-05-03 21:39 | 38.88020 | -74.59924 | 29995 ft | 437 kts | 230° |
| 2026-05-03 21:40 | 38.83546 | -74.65189 | 30007 ft | 434 kts | 230° |
| 2026-05-03 21:40 | 38.79101 | -74.70397 | 30022 ft | 434 kts | 230° |
| 2026-05-03 21:41 | 38.74629 | -74.75619 | 30015 ft | 435 kts | 229° |
| 2026-05-03 21:41 | 38.69933 | -74.80559 | 30011 ft | 436 kts | 227° |
| 2026-05-03 21:42 | 38.65231 | -74.85416 | 30034 ft | 436 kts | 227° |
| 2026-05-03 21:42 | 38.60515 | -74.90297 | 30016 ft | 434 kts | 227° |
| 2026-05-03 21:43 | 38.55803 | -74.95178 | 30023 ft | 435 kts | 227° |
| 2026-05-03 21:43 | 38.51173 | -75.00037 | 30015 ft | 431 kts | 229° |
| 2026-05-03 21:44 | 38.46679 | -75.05084 | 30018 ft | 429 kts | 229° |
| 2026-05-03 21:44 | 38.41946 | -75.09732 | 30032 ft | 433 kts | 225° |
| 2026-05-03 21:45 | 38.37053 | -75.14329 | 30027 ft | 434 kts | 225° |
| 2026-05-03 21:45 | 38.32230 | -75.18877 | 30044 ft | 433 kts | 225° |
| 2026-05-03 21:46 | 38.27393 | -75.23444 | 30028 ft | 432 kts | 226° |
| 2026-05-03 21:46 | 38.22602 | -75.27967 | 30030 ft | 431 kts | 226° |
| 2026-05-03 21:47 | 38.17788 | -75.32510 | 30032 ft | 430 kts | 226° |
| 2026-05-03 21:47 | 38.12988 | -75.37033 | 30030 ft | 431 kts | 226° |
| 2026-05-03 21:48 | 38.08194 | -75.41543 | 30046 ft | 429 kts | 226° |
| 2026-05-03 21:48 | 38.03373 | -75.46011 | 30028 ft | 429 kts | 224° |
| 2026-05-03 21:49 | 37.98452 | -75.50283 | 30039 ft | 433 kts | 224° |
| 2026-05-03 21:49 | 37.93510 | -75.54569 | 30047 ft | 431 kts | 225° |
| 2026-05-03 21:50 | 37.88547 | -75.58878 | 30035 ft | 430 kts | 225° |
| 2026-05-03 21:50 | 37.83622 | -75.63149 | 30032 ft | 432 kts | 224° |
| 2026-05-03 21:51 | 37.78404 | -75.67111 | 30061 ft | 436 kts | 220° |
| 2026-05-03 21:51 | 37.73350 | -75.70869 | 30061 ft | 434 kts | 220° |
| 2026-05-03 21:52 | 37.68178 | -75.74730 | 30057 ft | 434 kts | 220° |
| 2026-05-03 21:52 | 37.62962 | -75.78631 | 30067 ft | 436 kts | 220° |
| 2026-05-03 21:53 | 37.57746 | -75.82529 | 30061 ft | 433 kts | 220° |
| 2026-05-03 21:53 | 37.52754 | -75.86586 | 30060 ft | 425 kts | 228° |
| 2026-05-03 21:54 | 37.48422 | -75.91538 | 30062 ft | 419 kts | 231° |
| 2026-05-03 21:54 | 37.44170 | -75.96499 | 30064 ft | 418 kts | 231° |
| 2026-05-03 21:55 | 37.39894 | -76.01475 | 30057 ft | 417 kts | 231° |
| 2026-05-03 21:55 | 37.35664 | -76.06387 | 30061 ft | 417 kts | 231° |
| 2026-05-03 21:56 | 37.31403 | -76.11325 | 30060 ft | 416 kts | 231° |
| 2026-05-03 21:56 | 37.27152 | -76.16245 | 30053 ft | 417 kts | 231° |
| 2026-05-03 21:57 | 37.22874 | -76.21186 | 30059 ft | 418 kts | 231° |
| 2026-05-03 21:57 | 37.18621 | -76.26090 | 30059 ft | 417 kts | 231° |
| 2026-05-03 21:58 | 37.14341 | -76.31016 | 30049 ft | 417 kts | 231° |
| 2026-05-03 21:58 | 37.10076 | -76.35918 | 30059 ft | 417 kts | 231° |
| 2026-05-03 21:59 | 37.05810 | -76.40813 | 30052 ft | 416 kts | 231° |
| 2026-05-03 21:59 | 37.01540 | -76.45705 | 30052 ft | 416 kts | 231° |
| 2026-05-03 22:00 | 36.97251 | -76.50613 | 30054 ft | 417 kts | 231° |
| 2026-05-03 22:00 | 36.92978 | -76.55492 | 30056 ft | 416 kts | 231° |
| 2026-05-03 22:01 | 36.88683 | -76.60390 | 30055 ft | 418 kts | 231° |
| 2026-05-03 22:01 | 36.84393 | -76.65274 | 30045 ft | 417 kts | 230° |
| 2026-05-03 22:02 | 36.80130 | -76.70119 | 30070 ft | 417 kts | 230° |
| 2026-05-03 22:02 | 36.75815 | -76.75017 | 30073 ft | 418 kts | 230° |
| 2026-05-03 22:03 | 36.71530 | -76.79871 | 30069 ft | 418 kts | 230° |
| 2026-05-03 22:03 | 36.67222 | -76.84746 | 30072 ft | 419 kts | 230° |
| 2026-05-03 22:04 | 36.62900 | -76.89625 | 30064 ft | 417 kts | 230° |
| 2026-05-03 22:04 | 36.58597 | -76.94479 | 30068 ft | 418 kts | 230° |
| 2026-05-03 22:05 | 36.54289 | -76.99330 | 30061 ft | 420 kts | 230° |
| 2026-05-03 22:05 | 36.49959 | -77.04197 | 30062 ft | 420 kts | 230° |
| 2026-05-03 22:06 | 36.45636 | -77.09049 | 30063 ft | 418 kts | 230° |
| 2026-05-03 22:06 | 36.41328 | -77.13877 | 30062 ft | 421 kts | 230° |
| 2026-05-03 22:07 | 36.36991 | -77.18727 | 30060 ft | 418 kts | 230° |
| 2026-05-03 22:07 | 36.32654 | -77.23573 | 30065 ft | 419 kts | 230° |
| 2026-05-03 22:08 | 36.28192 | -77.28233 | 30065 ft | 422 kts | 226° |
| 2026-05-03 22:08 | 36.23545 | -77.32700 | 30063 ft | 424 kts | 226° |
| 2026-05-03 22:09 | 36.18881 | -77.37204 | 30059 ft | 424 kts | 226° |
| 2026-05-03 22:10 | 36.11933 | -77.43931 | 30061 ft | 425 kts | 226° |
| 2026-05-03 22:10 | 36.07282 | -77.48432 | 30057 ft | 423 kts | 226° |
| 2026-05-03 22:11 | 36.02663 | -77.52899 | 30065 ft | 423 kts | 226° |
| 2026-05-03 22:11 | 35.98044 | -77.57362 | 30059 ft | 426 kts | 226° |
| 2026-05-03 22:12 | 35.93402 | -77.61837 | 30064 ft | 422 kts | 226° |
| 2026-05-03 22:12 | 35.88725 | -77.66344 | 30080 ft | 425 kts | 225° |
| 2026-05-03 22:13 | 35.84047 | -77.70843 | 30081 ft | 425 kts | 225° |
| 2026-05-03 22:13 | 35.79412 | -77.75292 | 30085 ft | 423 kts | 225° |
| 2026-05-03 22:14 | 35.74739 | -77.79774 | 30079 ft | 425 kts | 225° |
| 2026-05-03 22:14 | 35.70093 | -77.84222 | 30077 ft | 424 kts | 224° |
| 2026-05-03 22:15 | 35.65407 | -77.88702 | 30084 ft | 428 kts | 224° |
| 2026-05-03 22:15 | 35.60743 | -77.93152 | 30074 ft | 424 kts | 225° |
| 2026-05-03 22:16 | 35.56036 | -77.97639 | 30074 ft | 427 kts | 225° |
| 2026-05-03 22:16 | 35.51378 | -78.02071 | 30074 ft | 425 kts | 224° |
| 2026-05-03 22:17 | 35.46694 | -78.06522 | 30076 ft | 427 kts | 224° |
| 2026-05-03 22:17 | 35.41987 | -78.10986 | 30076 ft | 425 kts | 224° |
| 2026-05-03 22:18 | 35.37317 | -78.15410 | 30067 ft | 426 kts | 224° |
| 2026-05-03 22:18 | 35.32620 | -78.19852 | 30069 ft | 428 kts | 224° |
| 2026-05-03 22:19 | 35.27909 | -78.24301 | 30066 ft | 426 kts | 224° |
| 2026-05-03 22:19 | 35.23210 | -78.28735 | 30066 ft | 430 kts | 224° |
| 2026-05-03 22:20 | 35.18498 | -78.33170 | 30064 ft | 427 kts | 224° |
| 2026-05-03 22:20 | 35.13770 | -78.37616 | 30063 ft | 427 kts | 224° |
| 2026-05-03 22:21 | 35.09082 | -78.42017 | 30069 ft | 428 kts | 224° |
| 2026-05-03 22:21 | 35.04343 | -78.46460 | 30066 ft | 429 kts | 224° |
| 2026-05-03 22:22 | 34.99598 | -78.50903 | 30067 ft | 429 kts | 224° |
| 2026-05-03 22:22 | 34.94873 | -78.55318 | 30054 ft | 429 kts | 224° |
| 2026-05-03 22:23 | 34.90142 | -78.59734 | 30047 ft | 431 kts | 224° |
| 2026-05-03 22:23 | 34.85382 | -78.64168 | 30062 ft | 430 kts | 223° |
| 2026-05-03 22:24 | 34.80652 | -78.68570 | 30071 ft | 430 kts | 223° |
| 2026-05-03 22:24 | 34.75894 | -78.72990 | 30073 ft | 428 kts | 223° |
| 2026-05-03 22:25 | 34.71165 | -78.77378 | 30073 ft | 428 kts | 223° |
| 2026-05-03 22:25 | 34.66425 | -78.81769 | 30083 ft | 428 kts | 223° |
| 2026-05-03 22:26 | 34.61717 | -78.86123 | 30085 ft | 426 kts | 223° |
| 2026-05-03 22:26 | 34.56992 | -78.90488 | 30073 ft | 429 kts | 223° |
| 2026-05-03 22:27 | 34.52254 | -78.94856 | 30079 ft | 425 kts | 223° |
| 2026-05-03 22:27 | 34.47519 | -78.99214 | 30074 ft | 428 kts | 223° |
| 2026-05-03 22:28 | 34.42769 | -79.03563 | 30077 ft | 427 kts | 222° |
| 2026-05-03 22:28 | 34.37935 | -79.07712 | 30076 ft | 427 kts | 221° |
| 2026-05-03 22:29 | 34.33069 | -79.11862 | 30079 ft | 426 kts | 221° |
| 2026-05-03 22:29 | 34.28210 | -79.16009 | 30085 ft | 427 kts | 221° |
| 2026-05-03 22:30 | 34.23457 | -79.20274 | 30091 ft | 423 kts | 225° |
| 2026-05-03 22:30 | 34.18924 | -79.24809 | 30089 ft | 423 kts | 225° |
| 2026-05-03 22:31 | 34.14381 | -79.29321 | 30085 ft | 422 kts | 225° |
| 2026-05-03 22:31 | 34.09848 | -79.33796 | 30085 ft | 420 kts | 225° |
| 2026-05-03 22:32 | 34.05301 | -79.38272 | 30087 ft | 423 kts | 225° |
| 2026-05-03 22:32 | 34.00754 | -79.42735 | 30084 ft | 421 kts | 225° |
| 2026-05-03 22:33 | 33.96213 | -79.47182 | 30079 ft | 421 kts | 225° |
| 2026-05-03 22:33 | 33.91671 | -79.51624 | 30078 ft | 420 kts | 225° |
| 2026-05-03 22:34 | 33.87131 | -79.56047 | 30087 ft | 421 kts | 223° |
| 2026-05-03 22:34 | 33.82295 | -79.60053 | 30082 ft | 425 kts | 220° |
| 2026-05-03 22:35 | 33.77394 | -79.64012 | 30078 ft | 424 kts | 220° |
| 2026-05-03 22:35 | 33.72471 | -79.67987 | 30098 ft | 424 kts | 220° |
| 2026-05-03 22:36 | 33.67594 | -79.71921 | 30103 ft | 423 kts | 220° |
| 2026-05-03 22:36 | 33.62705 | -79.75859 | 30096 ft | 424 kts | 219° |
| 2026-05-03 22:37 | 33.57836 | -79.79775 | 30093 ft | 420 kts | 220° |
| 2026-05-03 22:37 | 33.52948 | -79.83704 | 30094 ft | 424 kts | 220° |
| 2026-05-03 22:38 | 33.48057 | -79.87627 | 30096 ft | 421 kts | 219° |
| 2026-05-03 22:38 | 33.43189 | -79.91529 | 30090 ft | 421 kts | 219° |
| 2026-05-03 22:39 | 33.38329 | -79.95418 | 30088 ft | 423 kts | 220° |
| 2026-05-03 22:39 | 33.33462 | -79.99307 | 30092 ft | 421 kts | 220° |
| 2026-05-03 22:40 | 33.28579 | -80.03204 | 30089 ft | 423 kts | 220° |
| 2026-05-03 22:40 | 33.23701 | -80.07090 | 30093 ft | 420 kts | 219° |
| 2026-05-03 22:41 | 33.18807 | -80.10986 | 30090 ft | 420 kts | 219° |
| 2026-05-03 22:41 | 33.13934 | -80.14859 | 30090 ft | 422 kts | 219° |
| 2026-05-03 22:42 | 33.09090 | -80.18703 | 30087 ft | 421 kts | 219° |
| 2026-05-03 22:42 | 33.04224 | -80.22561 | 30086 ft | 423 kts | 219° |
| 2026-05-03 22:43 | 32.99349 | -80.26418 | 30081 ft | 419 kts | 219° |
| 2026-05-03 22:43 | 32.94467 | -80.30278 | 30078 ft | 421 kts | 219° |
| 2026-05-03 22:44 | 32.89613 | -80.34109 | 30084 ft | 419 kts | 219° |
| 2026-05-03 22:44 | 32.84753 | -80.37940 | 30089 ft | 420 kts | 219° |
| 2026-05-03 22:45 | 32.79900 | -80.41761 | 30079 ft | 418 kts | 219° |
| 2026-05-03 22:45 | 32.75026 | -80.45594 | 30079 ft | 420 kts | 219° |
| 2026-05-03 22:46 | 32.70178 | -80.49400 | 30077 ft | 417 kts | 219° |
| 2026-05-03 22:46 | 32.65328 | -80.53204 | 30083 ft | 420 kts | 219° |
| 2026-05-03 22:47 | 32.60448 | -80.57026 | 30083 ft | 421 kts | 219° |
| 2026-05-03 22:47 | 32.55596 | -80.60819 | 30089 ft | 417 kts | 219° |
| 2026-05-03 22:48 | 32.50738 | -80.64614 | 30093 ft | 419 kts | 219° |
| 2026-05-03 22:48 | 32.45845 | -80.68430 | 30107 ft | 418 kts | 219° |
| 2026-05-03 22:49 | 32.40998 | -80.72206 | 30110 ft | 417 kts | 219° |
| 2026-05-03 22:49 | 32.36150 | -80.75979 | 30111 ft | 418 kts | 219° |
| 2026-05-03 22:50 | 32.31288 | -80.79755 | 30108 ft | 418 kts | 219° |
| 2026-05-03 22:50 | 32.26406 | -80.83545 | 30111 ft | 419 kts | 218° |
| 2026-05-03 22:51 | 32.21546 | -80.87310 | 30108 ft | 418 kts | 219° |
| 2026-05-03 22:51 | 32.16577 | -80.90959 | 30102 ft | 424 kts | 212° |
| 2026-05-03 22:52 | 32.10936 | -80.93265 | 30102 ft | 434 kts | 202° |
| 2026-05-03 22:52 | 32.05126 | -80.95092 | 30102 ft | 433 kts | 202° |
| 2026-05-03 22:53 | 31.99307 | -80.96909 | 30036 ft | 426 kts | 202° |
| 2026-05-03 22:53 | 31.96439 | -80.97802 | 29457 ft | 424 kts | 202° |
| 2026-05-03 22:53 | 31.93584 | -80.98694 | 28649 ft | 426 kts | 202° |
| 2026-05-03 22:53 | 31.90733 | -80.99582 | 28001 ft | 424 kts | 202° |
| 2026-05-03 22:54 | 31.87881 | -81.00468 | 27473 ft | 420 kts | 201° |
| 2026-05-03 22:54 | 31.85104 | -81.01339 | 26951 ft | 416 kts | 202° |
| 2026-05-03 22:54 | 31.82307 | -81.02230 | 26374 ft | 413 kts | 202° |
| 2026-05-03 22:54 | 31.79540 | -81.03113 | 25774 ft | 411 kts | 202° |
| 2026-05-03 22:55 | 31.76790 | -81.03989 | 25206 ft | 408 kts | 201° |
| 2026-05-03 22:55 | 31.74071 | -81.04854 | 24662 ft | 405 kts | 201° |
| 2026-05-03 22:55 | 31.71355 | -81.05717 | 24138 ft | 401 kts | 201° |
| 2026-05-03 22:55 | 31.68687 | -81.06564 | 23587 ft | 398 kts | 201° |
| 2026-05-03 22:56 | 31.66028 | -81.07408 | 23030 ft | 396 kts | 201° |
| 2026-05-03 22:56 | 31.63380 | -81.08248 | 22476 ft | 393 kts | 200° |
| 2026-05-03 22:56 | 31.60758 | -81.09079 | 21929 ft | 391 kts | 201° |
| 2026-05-03 22:56 | 31.58134 | -81.09910 | 21368 ft | 389 kts | 200° |
| 2026-05-03 22:57 | 31.55508 | -81.10741 | 20795 ft | 388 kts | 200° |
| 2026-05-03 22:57 | 31.52918 | -81.11561 | 20189 ft | 388 kts | 200° |
| 2026-05-03 22:57 | 31.50305 | -81.12388 | 19542 ft | 388 kts | 200° |
| 2026-05-03 22:57 | 31.47718 | -81.13205 | 19000 ft | 385 kts | 200° |
| 2026-05-03 22:58 | 31.45144 | -81.14017 | 18511 ft | 382 kts | 200° |
| 2026-05-03 22:58 | 31.42601 | -81.14819 | 18035 ft | 379 kts | 200° |
| 2026-05-03 22:58 | 31.40049 | -81.15623 | 17541 ft | 376 kts | 200° |
| 2026-05-03 22:58 | 31.37537 | -81.16415 | 17053 ft | 373 kts | 200° |
| 2026-05-03 22:59 | 31.35048 | -81.17199 | 16564 ft | 370 kts | 200° |
| 2026-05-03 22:59 | 31.32577 | -81.17977 | 16164 ft | 366 kts | 200° |
| 2026-05-03 22:59 | 31.30109 | -81.18755 | 16048 ft | 372 kts | 199° |
| 2026-05-03 22:59 | 31.27607 | -81.19542 | 15991 ft | 370 kts | 200° |
| 2026-05-03 23:00 | 31.25098 | -81.20331 | 15989 ft | 371 kts | 200° |
| 2026-05-03 23:00 | 31.22617 | -81.21098 | 15998 ft | 373 kts | 198° |
| 2026-05-03 23:00 | 31.20048 | -81.21677 | 15978 ft | 368 kts | 195° |
| 2026-05-03 23:00 | 31.17546 | -81.22193 | 15508 ft | 366 kts | 195° |
| 2026-05-03 23:01 | 31.15033 | -81.22713 | 14776 ft | 370 kts | 195° |
| 2026-05-03 23:01 | 31.12493 | -81.23238 | 14179 ft | 371 kts | 195° |
| 2026-05-03 23:01 | 31.09959 | -81.23762 | 13779 ft | 366 kts | 194° |
| 2026-05-03 23:01 | 31.07462 | -81.24279 | 13316 ft | 363 kts | 194° |
| 2026-05-03 23:02 | 31.04983 | -81.24792 | 12986 ft | 356 kts | 195° |
| 2026-05-03 23:02 | 31.02581 | -81.25286 | 12866 ft | 340 kts | 195° |
| 2026-05-03 23:02 | 31.00311 | -81.25754 | 12631 ft | 322 kts | 195° |
| 2026-05-03 23:02 | 30.98155 | -81.26199 | 12446 ft | 305 kts | 195° |
| 2026-05-03 23:03 | 30.96120 | -81.26620 | 12277 ft | 288 kts | 195° |
| 2026-05-03 23:03 | 30.94182 | -81.27023 | 11938 ft | 280 kts | 196° |
| 2026-05-03 23:03 | 30.92265 | -81.27424 | 11381 ft | 280 kts | 195° |
| 2026-05-03 23:03 | 30.90355 | -81.27821 | 10819 ft | 281 kts | 195° |
| 2026-05-03 23:04 | 30.88410 | -81.28224 | 10261 ft | 281 kts | 194° |
| 2026-05-03 23:04 | 30.86521 | -81.28614 | 10048 ft | 275 kts | 194° |
| 2026-05-03 23:04 | 30.84590 | -81.29014 | 10001 ft | 281 kts | 194° |
| 2026-05-03 23:04 | 30.82676 | -81.29416 | 10016 ft | 278 kts | 196° |
| 2026-05-03 23:05 | 30.80777 | -81.29961 | 9992 ft | 279 kts | 199° |
| 2026-05-03 23:05 | 30.78907 | -81.30518 | 9986 ft | 277 kts | 198° |
| 2026-05-03 23:05 | 30.77015 | -81.30971 | 9990 ft | 280 kts | 195° |
| 2026-05-03 23:05 | 30.75108 | -81.31451 | 9980 ft | 276 kts | 204° |
| 2026-05-03 23:06 | 30.73519 | -81.32612 | 9977 ft | 267 kts | 230° |
| 2026-05-03 23:06 | 30.72569 | -81.34382 | 9634 ft | 260 kts | 250° |
| 2026-05-03 23:06 | 30.71937 | -81.36371 | 9180 ft | 260 kts | 252° |
| 2026-05-03 23:06 | 30.71352 | -81.38313 | 9029 ft | 257 kts | 253° |
| 2026-05-03 23:07 | 30.70757 | -81.40300 | 8993 ft | 260 kts | 253° |
| 2026-05-03 23:07 | 30.70158 | -81.42283 | 8992 ft | 259 kts | 253° |
| 2026-05-03 23:07 | 30.69558 | -81.44254 | 8986 ft | 259 kts | 253° |
| 2026-05-03 23:07 | 30.68958 | -81.46221 | 8977 ft | 260 kts | 253° |
| 2026-05-03 23:08 | 30.68360 | -81.48199 | 8951 ft | 262 kts | 253° |
| 2026-05-03 23:08 | 30.67749 | -81.50219 | 8706 ft | 262 kts | 253° |
| 2026-05-03 23:08 | 30.67155 | -81.52209 | 8430 ft | 259 kts | 253° |
| 2026-05-03 23:08 | 30.66574 | -81.54147 | 8141 ft | 254 kts | 253° |
| 2026-05-03 23:09 | 30.66000 | -81.56072 | 7849 ft | 250 kts | 253° |
| 2026-05-03 23:09 | 30.65441 | -81.57976 | 7557 ft | 246 kts | 253° |
| 2026-05-03 23:09 | 30.64889 | -81.59827 | 7265 ft | 245 kts | 253° |
| 2026-05-03 23:09 | 30.64330 | -81.61713 | 6970 ft | 248 kts | 253° |
| 2026-05-03 23:10 | 30.63771 | -81.63622 | 6670 ft | 248 kts | 253° |
| 2026-05-03 23:10 | 30.63222 | -81.65484 | 6377 ft | 246 kts | 253° |
| 2026-05-03 23:10 | 30.62666 | -81.67364 | 6085 ft | 245 kts | 253° |
| 2026-05-03 23:10 | 30.62115 | -81.69221 | 6002 ft | 246 kts | 253° |
| 2026-05-03 23:11 | 30.61557 | -81.71108 | 5991 ft | 246 kts | 253° |
| 2026-05-03 23:11 | 30.61001 | -81.73000 | 5989 ft | 245 kts | 253° |
| 2026-05-03 23:11 | 30.60462 | -81.74859 | 5990 ft | 247 kts | 253° |
| 2026-05-03 23:11 | 30.59918 | -81.76765 | 5981 ft | 246 kts | 253° |
| 2026-05-03 23:12 | 30.59386 | -81.78654 | 5734 ft | 249 kts | 253° |
| 2026-05-03 23:12 | 30.58839 | -81.80566 | 5395 ft | 249 kts | 253° |
| 2026-05-03 23:12 | 30.58296 | -81.82477 | 5056 ft | 248 kts | 253° |
| 2026-05-03 23:12 | 30.57762 | -81.84351 | 4738 ft | 245 kts | 252° |
| 2026-05-03 23:13 | 30.57239 | -81.86201 | 4389 ft | 238 kts | 253° |
| 2026-05-03 23:13 | 30.56729 | -81.88009 | 4038 ft | 234 kts | 253° |
| 2026-05-03 23:13 | 30.56236 | -81.89777 | 3700 ft | 228 kts | 253° |
| 2026-05-03 23:13 | 30.55714 | -81.91492 | 3358 ft | 228 kts | 243° |
| 2026-05-03 23:14 | 30.54622 | -81.92812 | 3008 ft | 229 kts | 210° |
| 2026-05-03 23:14 | 30.53111 | -81.93238 | 2641 ft | 226 kts | 175° |
| 2026-05-03 23:14 | 30.51579 | -81.92870 | 2292 ft | 222 kts | 163° |
| 2026-05-03 23:14 | 30.50088 | -81.92436 | 2016 ft | 215 kts | 163° |
| 2026-05-03 23:15 | 30.48632 | -81.92026 | 1980 ft | 217 kts | 163° |
| 2026-05-03 23:15 | 30.47161 | -81.91610 | 1977 ft | 217 kts | 162° |
| 2026-05-03 23:15 | 30.45842 | -81.90854 | 1979 ft | 214 kts | 135° |
| 2026-05-03 23:15 | 30.45109 | -81.89388 | 1968 ft | 209 kts | 105° |
| 2026-05-03 23:16 | 30.44753 | -81.87808 | 1973 ft | 196 kts | 102° |
| 2026-05-03 23:16 | 30.44642 | -81.86289 | 1980 ft | 186 kts | 82° |
| 2026-05-03 23:16 | 30.45005 | -81.84857 | 1976 ft | 183 kts | 70° |
| 2026-05-03 23:16 | 30.45463 | -81.83469 | 1982 ft | 186 kts | 70° |
| 2026-05-03 23:17 | 30.45889 | -81.82106 | 1977 ft | 176 kts | 71° |
| 2026-05-03 23:17 | 30.46304 | -81.80753 | 1920 ft | 178 kts | 71° |
| 2026-05-03 23:17 | 30.46717 | -81.79416 | 1688 ft | 173 kts | 71° |
| 2026-05-03 23:17 | 30.47106 | -81.78153 | 1476 ft | 162 kts | 71° |
| 2026-05-03 23:18 | 30.47487 | -81.76936 | 1259 ft | 159 kts | 70° |
| 2026-05-03 23:18 | 30.47877 | -81.75760 | 1030 ft | 154 kts | 70° |
| 2026-05-03 23:18 | 30.48243 | -81.74614 | 895 ft | 152 kts | 72° |
| 2026-05-03 23:18 | 30.48583 | -81.73441 | 659 ft | 154 kts | 72° |
| 2026-05-03 23:19 | 30.48931 | -81.72282 | 469 ft | 151 kts | 71° |
| 2026-05-03 23:19 | 30.49285 | -81.71137 | 256 ft | 150 kts | 72° |
| 2026-05-03 23:19 | 30.49634 | -81.69980 | 79 ft | 151 kts | 71° |
| 2026-05-03 23:19 | 30.49967 | -81.68884 | 32 ft | 131 kts | 71° |
| 2026-05-03 23:20 | 30.50161 | -81.68227 | 32 ft | 38 kts | 72° |
| 2026-05-03 23:20 | 30.50158 | -81.68070 | 31 ft | 12 kts | 111° |
| 2026-05-03 23:20 | 30.50116 | -81.68014 | 31 ft | 8 kts | 148° |
| 2026-05-03 23:20 | 30.50111 | -81.68010 | 32 ft | 0 kts | 149° |
| 2026-05-03 23:21 | 30.50110 | -81.68010 | 31 ft | 0 kts | 149° |
| 2026-05-03 23:21 | 30.50098 | -81.68003 | 31 ft | 5 kts | 160° |
| 2026-05-03 23:21 | 30.50048 | -81.68034 | 31 ft | 13 kts | 242° |
| 2026-05-03 23:22 | 30.49956 | -81.68328 | 31 ft | 23 kts | 251° |
| 2026-05-03 23:22 | 30.49900 | -81.68518 | 31 ft | 25 kts | 250° |
| 2026-05-03 23:22 | 30.49838 | -81.68713 | 31 ft | 26 kts | 250° |
| 2026-05-03 23:23 | 30.49775 | -81.68916 | 31 ft | 26 kts | 251° |
| 2026-05-03 23:23 | 30.49717 | -81.69111 | 31 ft | 21 kts | 249° |
| 2026-05-03 23:23 | 30.49611 | -81.69126 | 31 ft | 19 kts | 148° |
| 2026-05-03 23:23 | 30.49461 | -81.69022 | 31 ft | 24 kts | 149° |
| 2026-05-03 23:24 | 30.49315 | -81.68996 | 31 ft | 20 kts | 190° |